createdAt,value
2019-04-20T00:01:07.443Z,56.80
2019-04-20T00:03:41.288Z,56.30
2019-04-20T00:06:07.502Z,56.90
2019-04-20T00:08:40.384Z,56.90
2019-04-20T00:11:15.364Z,57.20
2019-04-20T00:13:49.858Z,57.60
2019-04-20T00:16:10.317Z,57.60
2019-04-20T00:18:47.963Z,57.40
2019-04-20T00:21:30.830Z,58.00
2019-04-20T00:24:09.117Z,57.40
2019-04-20T00:27:04.651Z,57.90
2019-04-20T00:29:25.411Z,57.00
2019-04-20T00:31:48.915Z,57.70
2019-04-20T00:34:16.462Z,57.70
2019-04-20T00:36:39.200Z,57.30
2019-04-20T00:39:11.397Z,59.30
2019-04-20T00:41:43.824Z,58.30
2019-04-20T00:44:17.072Z,57.80
2019-04-20T00:46:58.736Z,57.60
2019-04-20T00:49:29.216Z,59.10
2019-04-20T00:52:13.046Z,58.80
2019-04-20T00:54:16.013Z,59.70
2019-04-20T00:56:45.499Z,59.40
2019-04-20T00:59:27.646Z,58.70
2019-04-20T01:02:06.125Z,59.20
2019-04-20T01:04:38.992Z,59.90
2019-04-20T01:07:08.268Z,59.80
2019-04-20T01:09:47.772Z,60.20
2019-04-20T01:12:24.226Z,60.20
2019-04-20T01:14:53.952Z,59.00
2019-04-20T01:17:19.666Z,60.30
2019-04-20T01:19:52.573Z,60.20
2019-04-20T01:22:24.090Z,60.50
2019-04-20T01:24:52.004Z,60.50
2019-04-20T01:27:32.156Z,59.60
2019-04-20T01:30:07.474Z,59.40
2019-04-20T01:32:36.755Z,59.80
2019-04-20T01:35:10.063Z,61.50
2019-04-20T01:37:39.458Z,60.30
2019-04-20T01:40:01.089Z,60.20
2019-04-20T01:42:29.936Z,60.20
2019-04-20T01:45:00.284Z,60.90
2019-04-20T01:47:35.839Z,61.00
2019-04-20T01:50:08.447Z,60.80
2019-04-20T01:52:49.366Z,61.40
2019-04-20T01:55:33.638Z,62.20
2019-04-20T01:58:12.361Z,61.30
2019-04-20T02:00:36.554Z,61.80
2019-04-20T02:03:22.831Z,61.40
2019-04-20T02:05:55.644Z,61.10
2019-04-20T02:08:24.957Z,60.60
2019-04-20T02:10:57.612Z,62.20
2019-04-20T02:13:27.316Z,61.00
2019-04-20T02:15:59.020Z,60.50
2019-04-20T02:18:36.185Z,60.80
2019-04-20T02:21:18.346Z,60.30
2019-04-20T02:23:35.708Z,60.80
2019-04-20T02:25:59.034Z,61.60
2019-04-20T02:28:58.650Z,61.20
2019-04-20T02:31:55.991Z,63.40
2019-04-20T02:34:11.408Z,63.30
2019-04-20T02:36:51.621Z,61.60
2019-04-20T02:39:28.673Z,61.50
2019-04-20T02:41:58.263Z,61.30
2019-04-20T02:47:01.196Z,63.00
2019-04-20T02:54:36.817Z,61.50
2019-04-20T03:01:45.305Z,62.20
2019-04-20T03:04:04.899Z,62.60
2019-04-20T03:06:48.692Z,61.10
2019-04-20T03:09:27.233Z,61.50
2019-04-20T03:14:21.786Z,61.60
2019-04-20T03:16:50.751Z,61.10
2019-04-20T03:19:20.312Z,62.20
2019-04-20T03:22:06.444Z,61.90
2019-04-20T03:24:31.138Z,62.10
2019-04-20T03:27:14.875Z,62.90
2019-04-20T03:29:57.825Z,60.80
2019-04-20T03:33:00.075Z,63.10
2019-04-20T03:37:38.055Z,62.20
2019-04-20T03:39:56.740Z,62.10
2019-04-20T03:42:15.897Z,63.60
2019-04-20T03:44:54.238Z,65.60
2019-04-20T03:47:26.866Z,65.60
2019-04-20T03:50:14.705Z,63.70
2019-04-20T03:52:36.732Z,64.60
2019-04-20T03:55:35.647Z,63.50
2019-04-20T03:58:24.155Z,63.90
2019-04-20T04:01:13.093Z,63.70
2019-04-20T04:03:53.240Z,65.40
2019-04-20T04:06:17.866Z,63.00
2019-04-20T04:08:48.600Z,64.90
2019-04-20T04:11:27.000Z,64.50
2019-04-20T04:13:39.765Z,64.50
2019-04-20T04:16:13.127Z,65.90
2019-04-20T04:18:44.716Z,64.10
2019-04-20T04:21:18.413Z,63.60
2019-04-20T04:23:59.910Z,64.30
2019-04-20T04:26:32.321Z,65.50
2019-04-20T04:29:08.559Z,65.00
2019-04-20T04:31:33.290Z,66.00
2019-04-20T04:34:02.569Z,65.80
2019-04-20T04:36:30.169Z,67.00
2019-04-20T04:39:11.363Z,64.40
2019-04-20T04:41:37.914Z,67.30
2019-04-20T04:44:06.123Z,66.60
2019-04-20T04:46:20.671Z,65.30
2019-04-20T04:48:52.743Z,64.50
2019-04-20T04:51:26.334Z,64.60
2019-04-20T04:53:59.812Z,66.90
2019-04-20T04:56:24.940Z,67.70
2019-04-20T04:58:53.862Z,66.90
2019-04-20T05:01:28.455Z,67.50
2019-04-20T05:04:21.303Z,67.80
2019-04-20T05:06:37.764Z,66.40
2019-04-20T05:09:00.857Z,68.30
2019-04-20T05:11:28.021Z,67.00
2019-04-20T05:14:03.230Z,66.00
2019-04-20T05:16:45.159Z,66.50
2019-04-20T05:19:20.275Z,68.10
2019-04-20T05:22:10.872Z,66.90
2019-04-20T05:24:42.684Z,66.90
2019-04-20T05:27:40.514Z,68.50
2019-04-20T05:29:50.866Z,70.30
2019-04-20T05:32:32.813Z,69.10
2019-04-20T05:35:15.193Z,69.60
2019-04-20T05:37:51.468Z,68.00
2019-04-20T05:40:20.621Z,67.20
2019-04-20T05:42:54.378Z,67.30
2019-04-20T05:45:16.738Z,69.70
2019-04-20T05:47:50.835Z,70.30
2019-04-20T05:50:22.846Z,70.30
2019-04-20T05:53:04.499Z,67.50
2019-04-20T05:55:29.447Z,68.60
2019-04-20T05:57:56.748Z,68.30
2019-04-20T06:00:37.525Z,68.10
2019-04-20T06:03:00.722Z,67.80
2019-04-20T06:05:43.231Z,68.40
2019-04-20T06:07:59.273Z,67.70
2019-04-20T06:10:39.055Z,67.10
2019-04-20T06:13:04.428Z,69.40
2019-04-20T06:15:46.412Z,69.00
2019-04-20T06:18:23.125Z,67.10
2019-04-20T06:20:52.537Z,67.90
2019-04-20T06:24:00.606Z,68.20
2019-04-20T06:28:57.178Z,67.70
2019-04-20T06:31:30.091Z,67.20
2019-04-20T06:36:49.764Z,67.70
2019-04-20T06:39:24.403Z,67.90
2019-04-20T06:42:08.124Z,67.00
2019-04-20T06:44:30.330Z,67.00
2019-04-20T06:49:31.466Z,67.50
2019-04-20T06:52:09.805Z,66.90
2019-04-20T06:54:40.713Z,67.10
2019-04-20T06:57:12.987Z,66.80
2019-04-20T06:59:43.136Z,66.40
2019-04-20T07:02:18.670Z,66.60
2019-04-20T07:07:14.583Z,66.60
2019-04-20T07:09:52.482Z,66.70
2019-04-20T07:12:13.834Z,65.90
2019-04-20T07:14:36.640Z,66.40
2019-04-20T07:17:48.992Z,66.10
2019-04-20T07:20:26.173Z,66.10
2019-04-20T07:23:11.959Z,65.20
2019-04-20T07:25:31.132Z,64.80
2019-04-20T07:28:05.777Z,64.30
2019-04-20T07:30:41.709Z,64.50
2019-04-20T07:33:15.648Z,63.80
2019-04-20T07:35:44.423Z,63.70
2019-04-20T07:40:44.054Z,63.00
2019-04-20T07:43:14.639Z,62.30
2019-04-20T07:45:41.597Z,62.00
2019-04-20T07:48:31.916Z,62.50
2019-04-20T07:50:40.938Z,61.80
2019-04-20T07:53:18.496Z,61.60
2019-04-20T07:55:53.963Z,61.20
2019-04-20T07:58:15.529Z,60.50
2019-04-20T08:01:05.707Z,60.30
2019-04-20T08:03:55.692Z,59.70
2019-04-20T08:06:24.509Z,60.00
2019-04-20T08:09:03.797Z,59.90
2019-04-20T08:11:41.087Z,59.80
2019-04-20T08:14:16.321Z,59.20
2019-04-20T08:16:47.190Z,59.30
2019-04-20T08:19:12.281Z,58.50
2019-04-20T08:21:42.266Z,58.90
2019-04-20T08:24:13.247Z,58.60
2019-04-20T08:26:30.906Z,58.40
2019-04-20T08:29:20.630Z,58.00
2019-04-20T08:32:08.514Z,57.60
2019-04-20T08:34:43.017Z,57.80
2019-04-20T08:37:06.631Z,57.10
2019-04-20T08:39:53.846Z,57.00
2019-04-20T08:42:11.626Z,57.80
2019-04-20T08:45:00.165Z,56.30
2019-04-20T08:47:27.846Z,57.00
2019-04-20T08:50:19.304Z,56.20
2019-04-20T08:53:07.177Z,56.10
2019-04-20T08:55:09.290Z,56.10
2019-04-20T08:57:25.082Z,56.00
2019-04-20T08:59:54.489Z,55.50
2019-04-20T09:02:25.727Z,55.90
2019-04-20T09:05:02.533Z,55.10
2019-04-20T09:07:29.898Z,55.70
2019-04-20T09:10:24.379Z,54.50
2019-04-20T09:12:46.430Z,55.40
2019-04-20T09:15:03.456Z,54.20
2019-04-20T09:17:47.456Z,54.10
2019-04-20T09:20:22.761Z,54.00
2019-04-20T09:23:11.642Z,54.00
2019-04-20T09:28:28.507Z,52.50
2019-04-20T09:31:25.575Z,50.70
2019-04-20T09:33:57.765Z,50.60
2019-04-20T09:36:30.376Z,51.00
2019-04-20T09:39:14.988Z,51.20
2019-04-20T09:41:59.269Z,51.20
2019-04-20T09:44:11.687Z,51.40
2019-04-20T09:46:46.046Z,49.80
2019-04-20T09:49:20.687Z,49.60
2019-04-20T09:51:59.764Z,48.80
2019-04-20T09:54:34.398Z,47.40
2019-04-20T09:57:03.514Z,46.70
2019-04-20T09:59:35.743Z,47.10
2019-04-20T10:01:55.889Z,46.60
2019-04-20T10:04:19.585Z,46.90
2019-04-20T10:06:49.697Z,44.60
2019-04-20T10:09:26.354Z,45.20
2019-04-20T10:11:50.620Z,45.70
2019-04-20T10:14:20.101Z,46.70
2019-04-20T10:16:49.803Z,45.80
2019-04-20T10:19:24.899Z,45.60
2019-04-20T10:21:50.718Z,45.60
2019-04-20T10:24:20.899Z,45.10
2019-04-20T10:26:50.587Z,44.70
2019-04-20T10:29:19.893Z,45.30
2019-04-20T10:31:55.712Z,44.70
2019-04-20T10:34:22.800Z,45.40
2019-04-20T10:37:11.503Z,44.10
2019-04-20T10:39:42.639Z,45.30
2019-04-20T10:42:12.306Z,44.40
2019-04-20T10:44:42.945Z,44.30
2019-04-20T10:47:12.429Z,44.10
2019-04-20T10:49:42.881Z,44.30
2019-04-20T10:52:13.660Z,44.70
2019-04-20T10:54:43.073Z,43.60
2019-04-20T10:57:13.327Z,43.90
2019-04-20T10:59:43.712Z,42.90
2019-04-20T11:02:14.011Z,43.00
2019-04-20T11:04:44.392Z,43.60
2019-04-20T11:07:14.656Z,43.20
2019-04-20T11:09:44.826Z,42.90
2019-04-20T11:12:14.603Z,42.80
2019-04-20T11:14:45.545Z,42.40
2019-04-20T11:17:16.363Z,41.90
2019-04-20T11:19:45.857Z,43.50
2019-04-20T11:22:16.597Z,41.60
2019-04-20T11:24:46.179Z,41.70
2019-04-20T11:27:16.281Z,41.10
2019-04-20T11:29:46.375Z,40.70
2019-04-20T11:32:15.973Z,40.40
2019-04-20T11:34:45.526Z,41.10
2019-04-20T11:37:15.261Z,41.80
2019-04-20T11:39:45.323Z,41.60
2019-04-20T11:42:14.905Z,41.00
2019-04-20T11:44:44.818Z,40.70
2019-04-20T11:47:14.723Z,39.30
2019-04-20T11:49:45.726Z,40.00
2019-04-20T11:52:16.997Z,39.40
2019-04-20T11:54:46.330Z,39.90
2019-04-20T11:57:15.875Z,41.80
2019-04-20T11:59:45.397Z,40.00
2019-04-20T12:02:42.229Z,39.60
2019-04-20T12:05:21.312Z,34.80
2019-04-20T12:07:58.678Z,37.10
2019-04-20T12:10:29.607Z,35.10
2019-04-20T12:12:59.625Z,36.20
2019-04-20T12:15:32.228Z,35.70
2019-04-20T12:18:00.163Z,36.40
2019-04-20T12:20:30.647Z,37.10
2019-04-20T12:23:02.154Z,37.20
2019-04-20T12:25:35.915Z,37.00
2019-04-20T12:28:05.348Z,37.60
2019-04-20T12:30:35.491Z,37.30
2019-04-20T12:33:05.753Z,35.70
2019-04-20T12:35:36.196Z,35.00
2019-04-20T12:38:07.187Z,37.00
2019-04-20T12:40:37.831Z,37.70
2019-04-20T12:43:07.271Z,35.40
2019-04-20T12:45:37.760Z,35.60
2019-04-20T12:48:08.001Z,36.10
2019-04-20T12:50:37.596Z,35.00
2019-04-20T12:53:06.884Z,36.30
2019-04-20T12:55:36.737Z,35.60
2019-04-20T12:58:06.114Z,35.40
2019-04-20T13:00:47.029Z,35.60
2019-04-20T13:03:17.273Z,35.10
2019-04-20T13:05:47.846Z,34.20
2019-04-20T13:08:23.177Z,35.80
2019-04-20T13:10:56.466Z,36.10
2019-04-20T13:13:40.849Z,36.40
2019-04-20T13:16:38.723Z,34.50
2019-04-20T13:19:08.966Z,33.80
2019-04-20T13:21:39.071Z,35.40
2019-04-20T13:24:09.321Z,35.50
2019-04-20T13:26:38.796Z,34.30
2019-04-20T13:29:08.779Z,34.90
2019-04-20T13:31:38.342Z,35.00
2019-04-20T13:34:07.691Z,34.20
2019-04-20T13:36:38.080Z,34.60
2019-04-20T13:39:08.453Z,33.10
2019-04-20T13:41:38.189Z,32.80
2019-04-20T13:44:08.347Z,34.60
2019-04-20T13:46:38.859Z,33.80
2019-04-20T13:49:09.325Z,33.80
2019-04-20T13:51:39.128Z,32.50
2019-04-20T13:54:15.097Z,33.70
2019-04-20T13:56:39.772Z,33.10
2019-04-20T13:59:20.411Z,30.80
2019-04-20T14:01:57.069Z,30.10
2019-04-20T14:04:44.287Z,31.00
2019-04-20T14:07:33.641Z,31.40
2019-04-20T14:10:03.736Z,30.90
2019-04-20T14:12:38.571Z,30.20
2019-04-20T14:15:06.971Z,29.30
2019-04-20T14:17:37.190Z,29.10
2019-04-20T14:20:13.285Z,29.60
2019-04-20T14:22:38.974Z,30.00
2019-04-20T14:25:09.062Z,30.00
2019-04-20T14:27:40.021Z,28.70
2019-04-20T14:30:10.967Z,28.80
2019-04-20T14:32:40.946Z,29.50
2019-04-20T14:35:11.333Z,31.10
2019-04-20T14:37:41.669Z,29.60
2019-04-20T14:40:12.708Z,29.70
2019-04-20T14:42:46.276Z,28.40
2019-04-20T14:45:14.448Z,29.20
2019-04-20T14:47:43.896Z,28.00
2019-04-20T14:50:13.824Z,30.10
2019-04-20T14:52:43.838Z,27.50
2019-04-20T14:55:15.637Z,29.50
2019-04-20T14:57:45.413Z,28.50
2019-04-20T15:00:41.675Z,30.10
2019-04-20T15:03:30.222Z,30.30
2019-04-20T15:06:02.050Z,28.70
2019-04-20T15:08:32.506Z,30.60
2019-04-20T15:11:02.946Z,30.80
2019-04-20T15:13:32.936Z,30.20
2019-04-20T15:16:02.562Z,32.40
2019-04-20T15:18:37.655Z,31.80
2019-04-20T15:21:09.316Z,31.00
2019-04-20T15:23:39.535Z,29.70
2019-04-20T15:26:09.015Z,30.50
2019-04-20T15:28:38.650Z,30.50
2019-04-20T15:31:08.081Z,29.30
2019-04-20T15:33:57.043Z,31.20
2019-04-20T15:36:26.500Z,30.30
2019-04-20T15:38:56.827Z,30.00
2019-04-20T15:41:27.448Z,29.80
2019-04-20T15:43:57.378Z,29.80
2019-04-20T15:46:27.716Z,31.10
2019-04-20T15:48:57.747Z,29.40
2019-04-20T15:51:27.956Z,29.10
2019-04-20T15:53:57.765Z,28.40
2019-04-20T15:56:28.977Z,29.20
2019-04-20T15:58:58.751Z,29.90
2019-04-20T16:01:34.350Z,29.50
2019-04-20T16:04:11.732Z,29.10
2019-04-20T16:06:41.169Z,31.00
2019-04-20T16:09:12.403Z,31.60
2019-04-20T16:11:41.821Z,32.60
2019-04-20T16:14:11.085Z,32.60
2019-04-20T16:16:40.453Z,32.80
2019-04-20T16:19:26.849Z,33.40
2019-04-20T16:21:41.654Z,33.50
2019-04-20T16:24:15.003Z,33.90
2019-04-20T16:26:51.567Z,33.20
2019-04-20T16:29:21.801Z,32.00
2019-04-20T16:31:52.161Z,32.50
2019-04-20T16:34:21.500Z,33.50
2019-04-20T16:36:54.300Z,33.70
2019-04-20T16:39:22.652Z,33.30
2019-04-20T16:41:52.074Z,33.60
2019-04-20T16:44:23.035Z,34.10
2019-04-20T16:46:52.559Z,33.90
2019-04-20T16:49:23.263Z,34.70
2019-04-20T16:51:52.723Z,34.90
2019-04-20T16:54:23.455Z,34.30
2019-04-20T16:56:53.009Z,33.80
2019-04-20T16:59:22.607Z,34.10
2019-04-20T17:01:51.910Z,34.20
2019-04-20T17:04:23.029Z,34.70
2019-04-20T17:07:10.508Z,34.50
2019-04-20T17:09:40.145Z,34.90
2019-04-20T17:12:10.028Z,34.50
2019-04-20T17:14:39.949Z,34.70
2019-04-20T17:17:09.588Z,35.90
2019-04-20T17:19:39.852Z,35.50
2019-04-20T17:22:09.832Z,35.50
2019-04-20T17:24:39.921Z,36.00
2019-04-20T17:27:46.830Z,36.20
2019-04-20T17:30:39.971Z,36.10
2019-04-20T17:33:10.859Z,36.40
2019-04-20T17:35:52.567Z,36.40
2019-04-20T17:38:11.219Z,36.20
2019-04-20T17:40:59.963Z,36.80
2019-04-20T17:43:42.447Z,36.80
2019-04-20T17:46:10.003Z,36.80
2019-04-20T17:48:45.204Z,37.50
2019-04-20T17:51:28.774Z,36.90
2019-04-20T17:54:05.312Z,37.00
2019-04-20T17:56:38.457Z,37.20
2019-04-20T17:59:08.136Z,37.40
2019-04-20T18:02:17.488Z,37.70
2019-04-20T18:05:19.786Z,37.60
2019-04-20T18:07:46.307Z,37.80
2019-04-20T18:10:17.493Z,37.90
2019-04-20T18:12:41.866Z,38.10
2019-04-20T18:15:23.100Z,38.30
2019-04-20T18:18:24.075Z,38.80
2019-04-20T18:20:56.856Z,38.60
2019-04-20T18:23:33.426Z,38.70
2019-04-20T18:26:18.519Z,38.60
2019-04-20T18:28:54.421Z,38.80
2019-04-20T18:31:25.779Z,39.00
2019-04-20T18:34:00.689Z,39.10
2019-04-20T18:36:34.452Z,39.20
2019-04-20T18:39:04.977Z,39.30
2019-04-20T18:41:38.355Z,39.50
2019-04-20T18:44:04.424Z,39.80
2019-04-20T18:46:58.689Z,40.00
2019-04-20T18:49:18.165Z,40.10
2019-04-20T18:51:35.756Z,40.90
2019-04-20T18:54:08.294Z,40.40
2019-04-20T18:56:43.186Z,40.50
2019-04-20T18:59:07.232Z,40.50
2019-04-20T19:01:42.915Z,40.80
2019-04-20T19:04:11.971Z,41.20
2019-04-20T19:06:41.537Z,41.60
2019-04-20T19:09:16.722Z,41.40
2019-04-20T19:11:49.565Z,42.00
2019-04-20T19:14:49.232Z,42.00
2019-04-20T19:17:53.749Z,42.70
2019-04-20T19:20:28.476Z,42.90
2019-04-20T19:22:57.894Z,43.70
2019-04-20T19:25:32.720Z,44.20
2019-04-20T19:28:00.107Z,43.30
2019-04-20T19:30:37.402Z,44.80
2019-04-20T19:33:17.616Z,44.70
2019-04-20T19:35:41.838Z,45.30
2019-04-20T19:38:10.447Z,44.60
2019-04-20T19:40:45.633Z,45.90
2019-04-20T19:43:15.713Z,46.10
2019-04-20T19:46:14.651Z,45.90
2019-04-20T19:48:22.406Z,46.40
2019-04-20T19:51:06.864Z,46.90
2019-04-20T19:53:33.544Z,46.90
2019-04-20T19:55:55.815Z,47.20
2019-04-20T19:58:26.449Z,47.70
2019-04-20T20:00:52.109Z,47.40
2019-04-20T20:03:21.937Z,47.60
2019-04-20T20:05:53.806Z,48.10
2019-04-20T20:08:27.227Z,48.60
2019-04-20T20:10:54.813Z,49.00
2019-04-20T20:13:32.047Z,48.80
2019-04-20T20:16:02.431Z,48.80
2019-04-20T20:18:41.347Z,49.40
2019-04-20T20:21:12.364Z,49.20
2019-04-20T20:23:29.995Z,49.70
2019-04-20T20:26:02.317Z,49.30
2019-04-20T20:28:40.396Z,49.20
2019-04-20T20:31:12.364Z,50.00
2019-04-20T20:33:49.425Z,49.70
2019-04-20T20:36:11.826Z,50.40
2019-04-20T20:38:42.589Z,49.80
2019-04-20T20:41:15.192Z,51.30
2019-04-20T20:43:49.615Z,50.20
2019-04-20T20:46:19.713Z,50.50
2019-04-20T20:49:06.254Z,51.00
2019-04-20T20:51:35.461Z,51.30
2019-04-20T20:53:51.258Z,50.70
2019-04-20T20:56:22.332Z,50.80
2019-04-20T20:58:53.896Z,50.00
2019-04-20T21:01:20.474Z,50.20
2019-04-20T21:03:49.083Z,49.90
2019-04-20T21:06:18.950Z,50.10
2019-04-20T21:08:52.342Z,50.60
2019-04-20T21:11:23.714Z,50.50
2019-04-20T21:13:51.853Z,49.90
2019-04-20T21:16:27.594Z,49.60
2019-04-20T21:19:10.607Z,49.40
2019-04-20T21:21:37.318Z,49.30
2019-04-20T21:24:04.062Z,49.40
2019-04-20T21:26:36.150Z,49.20
2019-04-20T21:29:01.997Z,49.40
2019-04-20T21:31:32.649Z,49.00
2019-04-20T21:34:10.498Z,48.90
2019-04-20T21:36:33.490Z,49.40
2019-04-20T21:39:08.647Z,48.60
2019-04-20T21:41:40.801Z,48.90
2019-04-20T21:44:18.299Z,48.60
2019-04-20T21:46:44.136Z,48.20
2019-04-20T21:49:29.107Z,48.90
2019-04-20T21:51:49.472Z,49.10
2019-04-20T21:54:13.855Z,48.80
2019-04-20T21:56:49.835Z,49.00
2019-04-20T21:59:24.256Z,49.00
2019-04-20T22:01:56.377Z,48.70
2019-04-20T22:04:19.875Z,49.60
2019-04-20T22:06:50.014Z,49.10
2019-04-20T22:09:20.369Z,49.90
2019-04-20T22:11:49.863Z,49.20
2019-04-20T22:14:23.907Z,49.00
2019-04-20T22:16:53.316Z,49.50
2019-04-20T22:19:33.190Z,49.30
2019-04-20T22:22:02.510Z,49.00
2019-04-20T22:24:41.406Z,48.60
2019-04-20T22:27:05.421Z,49.60
2019-04-20T22:29:25.995Z,48.90
2019-04-20T22:32:02.704Z,48.90
2019-04-20T22:34:28.074Z,49.30
2019-04-20T22:36:58.046Z,49.00
2019-04-20T22:39:39.416Z,48.70
2019-04-20T22:42:07.355Z,49.20
2019-04-20T22:44:34.432Z,49.20
2019-04-20T22:47:12.293Z,49.30
2019-04-20T22:49:50.136Z,49.50
2019-04-20T22:52:27.806Z,49.10
2019-04-20T22:54:55.043Z,49.80
2019-04-20T22:57:29.506Z,49.50
2019-04-20T22:59:52.448Z,49.40
2019-04-20T23:02:13.370Z,50.20
2019-04-20T23:04:42.851Z,49.60
2019-04-20T23:07:12.788Z,49.70
2019-04-20T23:09:47.560Z,49.60
2019-04-20T23:12:18.984Z,49.60
2019-04-20T23:14:44.808Z,49.90
2019-04-20T23:17:18.360Z,50.20
2019-04-20T23:19:49.519Z,49.40
2019-04-20T23:22:17.824Z,49.90
2019-04-20T23:24:48.973Z,49.60
2019-04-20T23:27:25.566Z,49.70
2019-04-20T23:29:51.042Z,49.90
2019-04-20T23:32:21.815Z,49.70
2019-04-20T23:34:59.107Z,49.90
2019-04-20T23:37:29.219Z,50.00
2019-04-20T23:39:54.795Z,50.20
2019-04-20T23:42:34.893Z,49.60
2019-04-20T23:45:11.571Z,50.20
2019-04-20T23:48:04.341Z,50.80
2019-04-20T23:50:47.563Z,49.90
2019-04-20T23:53:20.082Z,49.90
2019-04-20T23:55:33.946Z,50.40
2019-04-20T23:58:06.920Z,50.60
